createdAt,value
2017-03-13T00:04:15.681Z,1013.17
2017-03-13T00:09:12.675Z,1013.31
2017-03-13T00:14:08.973Z,1013.38
2017-03-13T00:19:05.679Z,1013.47
2017-03-13T00:24:02.113Z,1013.46
2017-03-13T00:28:58.961Z,1013.56
2017-03-13T00:33:55.713Z,1013.58
2017-03-13T00:38:51.969Z,1013.56
2017-03-13T00:43:48.525Z,1013.49
2017-03-13T00:48:45.047Z,1013.60
2017-03-13T00:53:41.469Z,1013.65
2017-03-13T00:58:38.114Z,1013.64
2017-03-13T01:03:34.958Z,1013.66
2017-03-13T01:08:31.558Z,1013.73
2017-03-13T01:13:27.926Z,1013.78
2017-03-13T01:18:24.401Z,1013.77
2017-03-13T01:23:21.819Z,1013.77
2017-03-13T01:28:17.959Z,1013.87
2017-03-13T01:33:14.078Z,1013.89
2017-03-13T01:38:11.117Z,1013.94
2017-03-13T01:43:07.619Z,1013.95
2017-03-13T01:48:04.281Z,1013.96
2017-03-13T01:53:00.720Z,1013.95
2017-03-13T01:57:57.180Z,1013.95
2017-03-13T02:02:53.899Z,1013.99
2017-03-13T02:07:50.541Z,1013.90
2017-03-13T02:12:46.822Z,1013.93
2017-03-13T02:17:43.353Z,1013.98
2017-03-13T02:22:40.015Z,1014.06
2017-03-13T02:27:36.240Z,1014.06
2017-03-13T02:32:32.639Z,1014.11
2017-03-13T02:37:29.120Z,1014.18
2017-03-13T02:42:25.292Z,1014.28
2017-03-13T02:47:21.737Z,1014.22
2017-03-13T02:52:18.013Z,1014.33
2017-03-13T02:57:14.747Z,1014.26
2017-03-13T03:02:12.280Z,1014.30
2017-03-13T03:07:07.995Z,1014.36
2017-03-13T03:12:05.625Z,1014.36
2017-03-13T03:17:02.422Z,1014.46
2017-03-13T03:21:58.879Z,1014.50
2017-03-13T03:26:55.217Z,1014.64
2017-03-13T03:31:51.360Z,1014.66
2017-03-13T03:36:48.219Z,1014.64
2017-03-13T03:41:45.321Z,1014.64
2017-03-13T03:46:41.801Z,1014.68
2017-03-13T03:51:38.227Z,1014.71
2017-03-13T03:56:34.528Z,1014.90
2017-03-13T04:01:31.912Z,1014.92
2017-03-13T04:06:27.931Z,1014.93
2017-03-13T04:11:24.594Z,1014.89
2017-03-13T04:16:21.527Z,1014.95
2017-03-13T04:21:18.308Z,1014.98
2017-03-13T04:26:14.645Z,1014.78
2017-03-13T04:31:11.024Z,1014.88
2017-03-13T04:36:07.474Z,1014.87
2017-03-13T04:41:03.724Z,1014.73
2017-03-13T04:46:02.026Z,1014.75
2017-03-13T04:50:58.397Z,1014.94
2017-03-13T04:55:54.865Z,1014.99
2017-03-13T05:00:51.130Z,1015.13
2017-03-13T05:05:48.504Z,1015.13
2017-03-13T05:10:44.731Z,1015.00
2017-03-13T05:15:41.678Z,1014.92
2017-03-13T05:20:38.160Z,1014.91
2017-03-13T05:25:34.299Z,1015.13
2017-03-13T05:30:31.599Z,1015.19
2017-03-13T05:35:28.172Z,1015.19
2017-03-13T05:40:24.824Z,1015.30
2017-03-13T05:45:21.429Z,1015.29
2017-03-13T05:50:18.286Z,1015.18
2017-03-13T05:55:14.842Z,1015.31
2017-03-13T06:00:11.611Z,1015.25
2017-03-13T06:05:08.143Z,1015.33
2017-03-13T06:10:04.274Z,1015.46
2017-03-13T06:15:02.045Z,1015.47
2017-03-13T06:19:58.211Z,1015.57
2017-03-13T06:24:55.526Z,1015.69
2017-03-13T06:29:51.826Z,1015.61
2017-03-13T06:34:48.800Z,1015.64
2017-03-13T06:39:45.413Z,1015.58
2017-03-13T06:44:42.180Z,1015.62
2017-03-13T06:49:38.833Z,1015.65
2017-03-13T06:54:35.385Z,1015.74
2017-03-13T06:59:34.345Z,1015.72
2017-03-13T07:04:31.140Z,1015.75
2017-03-13T07:09:27.725Z,1015.89
2017-03-13T07:14:24.982Z,1015.94
2017-03-13T07:19:21.647Z,1015.94
2017-03-13T07:24:18.372Z,1015.90
2017-03-13T07:29:14.642Z,1015.97
2017-03-13T07:34:12.466Z,1016.03
2017-03-13T07:39:09.032Z,1016.02
2017-03-13T07:44:06.575Z,1016.07
2017-03-13T07:49:03.127Z,1016.25
2017-03-13T07:53:59.933Z,1016.37
2017-03-13T07:58:56.525Z,1016.57
2017-03-13T08:03:53.785Z,1016.65
2017-03-13T08:08:50.570Z,1016.92
2017-03-13T08:13:47.106Z,1017.06
2017-03-13T08:18:43.431Z,1017.12
2017-03-13T08:23:40.908Z,1017.04
2017-03-13T08:28:38.167Z,1017.18
2017-03-13T08:33:35.864Z,1017.26
2017-03-13T08:38:32.285Z,1017.42
2017-03-13T08:43:28.435Z,1017.64
2017-03-13T08:48:24.727Z,1017.63
2017-03-13T08:53:21.548Z,1017.72
2017-03-13T08:58:18.166Z,1017.59
2017-03-13T09:03:14.627Z,1017.26
2017-03-13T09:08:11.503Z,1017.26
2017-03-13T09:13:07.968Z,1017.40
2017-03-13T09:18:04.566Z,1017.51
2017-03-13T09:23:01.656Z,1017.49
2017-03-13T09:27:58.773Z,1017.52
2017-03-13T09:32:55.266Z,1017.59
2017-03-13T09:37:53.151Z,1017.58
2017-03-13T09:42:51.160Z,1017.65
2017-03-13T09:47:48.696Z,1017.61
2017-03-13T09:52:46.396Z,1017.58
2017-03-13T09:57:43.986Z,1017.70
2017-03-13T10:02:42.067Z,1017.73
2017-03-13T10:07:38.180Z,1017.73
2017-03-13T10:12:35.875Z,1017.54
2017-03-13T10:17:32.819Z,1017.58
2017-03-13T10:22:29.473Z,1017.58
2017-03-13T10:27:26.672Z,1017.69
2017-03-13T10:32:24.254Z,1017.68
2017-03-13T10:37:21.299Z,1017.61
2017-03-13T10:42:18.035Z,1017.78
2017-03-13T10:47:14.146Z,1017.86
2017-03-13T10:52:10.571Z,1017.91
2017-03-13T10:57:07.269Z,1017.93
2017-03-13T11:02:04.310Z,1018.00
2017-03-13T11:07:02.534Z,1018.04
2017-03-13T11:12:00.927Z,1018.13
2017-03-13T11:16:58.916Z,1018.22
2017-03-13T11:21:56.384Z,1018.24
2017-03-13T11:26:53.678Z,1018.30
2017-03-13T11:31:50.648Z,1018.39
2017-03-13T11:36:48.063Z,1018.32
2017-03-13T11:41:45.361Z,1018.33
2017-03-13T11:46:42.401Z,1018.17
2017-03-13T11:51:39.530Z,1018.23
2017-03-13T11:56:37.154Z,1018.37
2017-03-13T12:01:34.272Z,1018.24
2017-03-13T12:06:31.018Z,1018.35
2017-03-13T12:11:28.603Z,1018.27
2017-03-13T12:16:25.794Z,1018.26
2017-03-13T12:21:22.773Z,1018.06
2017-03-13T12:26:18.819Z,1018.06
2017-03-13T12:31:14.864Z,1018.00
2017-03-13T12:36:12.879Z,1017.92
2017-03-13T12:41:09.301Z,1017.95
2017-03-13T12:46:06.077Z,1017.97
2017-03-13T12:51:03.042Z,1017.90
2017-03-13T12:55:59.113Z,1017.97
2017-03-13T13:00:55.108Z,1018.02
2017-03-13T13:05:51.438Z,1018.02
2017-03-13T13:10:48.096Z,1017.94
2017-03-13T13:15:44.337Z,1017.96
2017-03-13T13:20:40.437Z,1017.80
2017-03-13T13:25:37.805Z,1017.82
2017-03-13T13:30:36.392Z,1017.87
2017-03-13T13:35:32.929Z,1017.83
2017-03-13T13:40:29.407Z,1017.81
2017-03-13T13:45:26.766Z,1017.81
2017-03-13T13:50:22.483Z,1017.94
2017-03-13T13:55:18.522Z,1017.97
2017-03-13T14:00:15.227Z,1017.98
2017-03-13T14:05:13.376Z,1018.10
2017-03-13T14:10:09.705Z,1018.09
2017-03-13T14:15:06.181Z,1018.17
2017-03-13T14:20:03.366Z,1018.27
2017-03-13T14:24:59.876Z,1018.24
2017-03-13T14:29:56.587Z,1018.23
2017-03-13T14:34:53.873Z,1018.24
2017-03-13T14:39:50.244Z,1018.31
2017-03-13T14:44:47.734Z,1018.29
2017-03-13T14:49:43.761Z,1018.28
2017-03-13T14:54:40.468Z,1018.31
2017-03-13T14:59:37.339Z,1018.37
2017-03-13T15:04:33.756Z,1018.46
2017-03-13T15:09:32.769Z,1018.54
2017-03-13T15:14:28.097Z,1018.58
2017-03-13T15:19:24.753Z,1018.64
2017-03-13T15:24:22.135Z,1018.58
2017-03-13T15:29:18.396Z,1018.59
2017-03-13T15:34:14.583Z,1018.67
2017-03-13T15:39:11.521Z,1018.80
2017-03-13T15:44:08.217Z,1018.74
2017-03-13T15:49:04.477Z,1018.84
2017-03-13T15:54:00.755Z,1018.88
2017-03-13T15:58:57.695Z,1019.01
2017-03-13T16:03:54.515Z,1018.95
2017-03-13T16:08:51.755Z,1019.06
2017-03-13T16:13:48.094Z,1019.13
2017-03-13T16:18:45.059Z,1019.22
2017-03-13T16:23:41.508Z,1019.31
2017-03-13T16:28:37.963Z,1019.35
2017-03-13T16:33:34.296Z,1019.38
2017-03-13T16:38:31.003Z,1019.35
2017-03-13T16:43:27.821Z,1019.52
2017-03-13T16:48:24.449Z,1019.60
2017-03-13T16:53:20.798Z,1019.63
2017-03-13T16:58:17.893Z,1019.87
2017-03-13T17:03:15.660Z,1019.85
2017-03-13T17:08:11.848Z,1019.94
2017-03-13T17:13:08.367Z,1019.96
2017-03-13T17:18:04.561Z,1020.05
2017-03-13T17:23:01.437Z,1020.16
2017-03-13T17:27:58.259Z,1020.21
2017-03-13T17:32:54.689Z,1020.32
2017-03-13T17:37:51.044Z,1020.46
2017-03-13T17:42:47.341Z,1020.62
2017-03-13T17:47:43.550Z,1020.72
2017-03-13T17:52:40.060Z,1020.78
2017-03-13T17:57:36.640Z,1020.74
2017-03-13T18:02:33.205Z,1020.80
2017-03-13T18:07:29.582Z,1020.90
2017-03-13T18:12:26.304Z,1021.05
2017-03-13T18:17:22.770Z,1021.03
2017-03-13T18:22:19.380Z,1021.17
2017-03-13T18:27:15.773Z,1021.21
2017-03-13T18:32:15.088Z,1021.27
2017-03-13T18:37:11.124Z,1021.40
2017-03-13T18:42:07.320Z,1021.35
2017-03-13T18:47:04.385Z,1021.44
2017-03-13T18:52:00.901Z,1021.41
2017-03-13T18:56:57.192Z,1021.43
2017-03-13T19:01:54.209Z,1021.47
2017-03-13T19:06:51.033Z,1021.60
2017-03-13T19:11:47.553Z,1021.78
2017-03-13T19:16:43.965Z,1021.80
2017-03-13T19:21:41.031Z,1021.85
2017-03-13T19:26:37.227Z,1021.94
2017-03-13T19:31:34.523Z,1021.97
2017-03-13T19:36:30.744Z,1022.02
2017-03-13T19:41:27.267Z,1022.03
2017-03-13T19:46:23.280Z,1022.12
2017-03-13T19:51:20.437Z,1021.95
2017-03-13T19:56:16.929Z,1021.96
2017-03-13T20:01:13.306Z,1022.18
2017-03-13T20:06:09.684Z,1022.33
2017-03-13T20:11:06.031Z,1022.32
2017-03-13T20:16:02.478Z,1022.35
2017-03-13T20:20:58.910Z,1022.40
2017-03-13T20:25:55.515Z,1022.43
2017-03-13T20:30:52.053Z,1022.44
2017-03-13T20:35:49.110Z,1022.52
2017-03-13T20:40:45.356Z,1022.60
2017-03-13T20:45:41.512Z,1022.65
2017-03-13T20:50:38.314Z,1022.87
2017-03-13T20:55:34.596Z,1022.89
2017-03-13T21:00:31.466Z,1022.99
2017-03-13T21:05:28.501Z,1023.04
2017-03-13T21:10:24.997Z,1023.03
2017-03-13T21:15:21.442Z,1023.04
2017-03-13T21:20:17.588Z,1023.10
2017-03-13T21:25:13.843Z,1023.17
2017-03-13T21:30:10.356Z,1023.15
2017-03-13T21:35:06.916Z,1023.26
2017-03-13T21:40:03.490Z,1023.28
2017-03-13T21:44:59.817Z,1023.34
2017-03-13T21:49:56.273Z,1023.36
2017-03-13T21:54:52.576Z,1023.41
2017-03-13T21:59:49.121Z,1023.35
2017-03-13T22:04:45.343Z,1023.37
2017-03-13T22:09:42.010Z,1023.44
2017-03-13T22:14:38.449Z,1023.36
2017-03-13T22:19:34.984Z,1023.46
2017-03-13T22:24:31.191Z,1023.42
2017-03-13T22:29:27.561Z,1023.53
2017-03-13T22:34:24.950Z,1023.52
2017-03-13T22:39:21.229Z,1023.51
2017-03-13T22:44:17.720Z,1023.51
2017-03-13T22:49:14.140Z,1023.52
2017-03-13T22:54:12.019Z,1023.47
2017-03-13T22:59:07.868Z,1023.57
2017-03-13T23:04:04.186Z,1023.51
2017-03-13T23:09:00.623Z,1023.58
2017-03-13T23:13:56.820Z,1023.57
2017-03-13T23:18:53.470Z,1023.59
2017-03-13T23:23:50.582Z,1023.67
2017-03-13T23:28:47.141Z,1023.74
2017-03-13T23:33:43.463Z,1023.71
2017-03-13T23:38:40.103Z,1023.79
2017-03-13T23:43:36.864Z,1023.79
2017-03-13T23:53:36.192Z,1023.80
2017-03-13T23:58:32.774Z,1023.78
